createdAt,value
2022-11-19T00:02:18.557Z,26.08
2022-11-19T00:07:22.106Z,25.73
2022-11-19T00:12:44.483Z,23.98
2022-11-19T00:17:47.940Z,24.20
2022-11-19T00:22:52.613Z,23.33
2022-11-19T00:27:59.554Z,26.08
2022-11-19T00:33:03.130Z,27.13
2022-11-19T00:38:06.654Z,27.38
2022-11-19T00:43:28.631Z,25.38
2022-11-19T00:48:32.104Z,28.98
2022-11-19T00:53:36.079Z,26.98
2022-11-19T00:58:41.561Z,25.38
2022-11-19T01:03:46.201Z,26.48
2022-11-19T01:08:50.766Z,22.10
2022-11-19T01:13:56.211Z,24.27
2022-11-19T01:18:59.757Z,28.33
2022-11-19T01:24:04.366Z,24.85
2022-11-19T01:29:09.196Z,26.13
2022-11-19T01:34:12.774Z,26.33
2022-11-19T01:39:16.259Z,28.25
2022-11-19T01:45:02.458Z,27.15
2022-11-19T01:50:07.931Z,30.48
2022-11-19T01:55:12.568Z,29.80
2022-11-19T02:00:17.282Z,32.67
2022-11-19T02:05:22.856Z,31.88
2022-11-19T02:10:36.509Z,31.10
2022-11-19T02:15:46.872Z,30.85
2022-11-19T02:21:00.820Z,29.30
2022-11-19T02:26:34.935Z,30.98
2022-11-19T02:31:46.497Z,31.52
2022-11-19T02:36:58.880Z,31.05
2022-11-19T02:42:09.972Z,33.03
2022-11-19T02:52:21.911Z,36.50
2022-11-19T02:57:25.450Z,35.90
2022-11-19T03:02:51.779Z,36.17
2022-11-19T03:07:55.450Z,35.03
2022-11-19T03:13:29.214Z,35.97
2022-11-19T03:18:39.836Z,38.58
2022-11-19T03:23:47.495Z,36.15
2022-11-19T03:28:54.235Z,38.40
2022-11-19T03:34:02.113Z,39.65
2022-11-19T03:39:09.007Z,38.13
2022-11-19T03:44:17.586Z,38.10
2022-11-19T03:49:28.362Z,42.05
2022-11-19T03:54:32.011Z,41.45
2022-11-19T03:59:35.951Z,38.97
2022-11-19T04:04:40.798Z,41.00
2022-11-19T04:09:44.807Z,39.40
2022-11-19T04:14:48.477Z,39.88
2022-11-19T04:19:53.385Z,40.53
2022-11-19T04:24:57.023Z,38.85
2022-11-19T04:30:00.574Z,39.67
2022-11-19T04:35:06.119Z,40.97
2022-11-19T04:40:10.858Z,43.10
2022-11-19T04:45:14.252Z,43.17
2022-11-19T04:50:19.074Z,43.95
2022-11-19T04:55:22.597Z,42.50
2022-11-19T05:00:26.288Z,45.00
2022-11-19T05:05:31.282Z,41.53
2022-11-19T05:10:34.755Z,48.50
2022-11-19T05:15:38.297Z,47.10
2022-11-19T05:20:43.148Z,46.75
2022-11-19T05:25:47.415Z,45.15
2022-11-19T05:30:54.691Z,41.42
2022-11-19T05:35:59.521Z,49.03
2022-11-19T05:41:03.004Z,40.58
2022-11-19T05:46:06.879Z,42.05
2022-11-19T05:51:14.560Z,45.13
2022-11-19T05:56:18.042Z,47.65
2022-11-19T06:01:26.143Z,41.60
2022-11-19T06:06:30.960Z,46.13
2022-11-19T06:11:50.383Z,43.53
2022-11-19T06:16:57.176Z,43.80
2022-11-19T06:22:02.118Z,44.05
2022-11-19T06:27:05.635Z,43.58
2022-11-19T06:32:09.087Z,41.50
2022-11-19T06:37:14.176Z,38.58
2022-11-19T06:42:35.455Z,44.25
2022-11-19T06:47:40.857Z,42.40
2022-11-19T06:52:45.713Z,40.55
2022-11-19T06:57:49.189Z,40.20
2022-11-19T07:02:52.869Z,39.25
2022-11-19T07:08:02.636Z,40.67
2022-11-19T07:13:06.830Z,39.47
2022-11-19T07:18:11.337Z,41.80
2022-11-19T07:23:16.121Z,43.47
2022-11-19T07:28:19.541Z,40.72
2022-11-19T07:33:22.999Z,42.53
2022-11-19T07:38:32.735Z,43.92
2022-11-19T07:43:39.273Z,41.22
2022-11-19T07:48:42.921Z,41.10
2022-11-19T07:53:47.862Z,39.28
2022-11-19T07:58:51.555Z,41.85
2022-11-19T08:03:56.766Z,43.88
2022-11-19T08:09:02.589Z,38.25
2022-11-19T08:14:06.107Z,38.10
2022-11-19T08:19:11.485Z,41.80
2022-11-19T08:24:20.203Z,42.50
2022-11-19T08:29:24.222Z,38.20
2022-11-19T08:34:27.831Z,34.35
2022-11-19T08:39:33.065Z,32.40
2022-11-19T08:44:36.663Z,32.78
2022-11-19T08:49:40.362Z,33.72
2022-11-19T08:54:45.275Z,32.58
2022-11-19T08:59:48.879Z,29.30
2022-11-19T09:04:52.493Z,33.28
2022-11-19T09:09:57.727Z,29.75
2022-11-19T09:15:01.389Z,29.48
2022-11-19T09:20:05.905Z,30.40
2022-11-19T09:25:22.606Z,26.58
2022-11-19T09:30:26.971Z,29.88
2022-11-19T09:35:30.603Z,28.00
2022-11-19T09:40:36.046Z,27.65
2022-11-19T09:45:50.118Z,28.17
2022-11-19T09:50:59.582Z,27.55
2022-11-19T09:56:04.747Z,29.33
2022-11-19T10:01:11.887Z,27.23
2022-11-19T10:06:29.092Z,29.02
2022-11-19T10:11:44.181Z,24.25
2022-11-19T10:16:58.388Z,27.08
2022-11-19T10:22:09.426Z,23.33
2022-11-19T10:27:25.180Z,23.15
2022-11-19T10:32:32.826Z,23.52
2022-11-19T10:37:42.091Z,24.75
2022-11-19T10:42:51.012Z,22.88
2022-11-19T10:48:04.663Z,27.38
2022-11-19T10:53:18.233Z,20.27
2022-11-19T10:58:27.404Z,19.27
2022-11-19T11:03:35.423Z,19.13
2022-11-19T11:08:50.387Z,21.75
2022-11-19T11:14:12.915Z,17.95
2022-11-19T11:19:19.888Z,20.35
2022-11-19T11:24:32.951Z,19.40
2022-11-19T11:29:37.973Z,17.67
2022-11-19T11:34:44.255Z,19.17
2022-11-19T11:39:52.074Z,17.25
2022-11-19T11:44:59.590Z,17.52
2022-11-19T11:50:09.488Z,16.85
2022-11-19T11:55:16.818Z,16.23
2022-11-19T12:00:34.149Z,18.92
2022-11-19T12:06:01.628Z,19.25
2022-11-19T12:11:13.989Z,18.40
2022-11-19T12:16:27.901Z,15.80
2022-11-19T12:21:38.128Z,15.95
2022-11-19T12:26:51.634Z,15.90
2022-11-19T12:32:18.996Z,15.75
2022-11-19T12:37:41.891Z,15.15
2022-11-19T12:42:54.170Z,14.45
2022-11-19T12:48:23.896Z,14.70
2022-11-19T12:53:52.958Z,14.13
2022-11-19T12:59:05.730Z,14.45
2022-11-19T13:04:17.618Z,14.82
2022-11-19T13:09:31.489Z,12.80
2022-11-19T13:14:41.155Z,14.40
2022-11-19T13:19:51.234Z,14.43
2022-11-19T13:24:59.060Z,13.05
2022-11-19T13:30:05.591Z,13.13
2022-11-19T13:35:22.492Z,13.25
2022-11-19T13:40:31.871Z,11.35
2022-11-19T13:45:38.339Z,11.35
2022-11-19T13:50:49.045Z,12.13
2022-11-19T13:55:57.291Z,9.48
2022-11-19T14:01:15.537Z,11.00
2022-11-19T14:06:59.689Z,10.57
2022-11-19T14:12:42.324Z,10.00
2022-11-19T14:18:09.451Z,10.48
2022-11-19T14:24:02.182Z,10.07
2022-11-19T14:29:05.629Z,11.93
2022-11-19T14:34:27.023Z,9.02
2022-11-19T14:39:33.889Z,10.35
2022-11-19T14:44:37.378Z,10.60
2022-11-19T14:49:41.319Z,10.93
2022-11-19T14:54:46.835Z,12.98
2022-11-19T14:59:53.744Z,10.77
2022-11-19T15:05:03.464Z,12.07
2022-11-19T15:10:29.123Z,12.73
2022-11-19T15:15:38.580Z,10.10
2022-11-19T15:21:02.771Z,13.18
2022-11-19T15:26:18.444Z,11.23
2022-11-19T15:31:33.267Z,12.07
2022-11-19T15:36:40.579Z,12.45
2022-11-19T15:42:00.655Z,11.52
2022-11-19T15:47:06.873Z,9.20
2022-11-19T15:52:19.731Z,12.18
2022-11-19T15:57:27.314Z,10.13
2022-11-19T16:02:37.191Z,12.80
2022-11-19T16:07:41.882Z,12.60
2022-11-19T16:13:14.214Z,13.63
2022-11-19T16:18:20.257Z,11.73
2022-11-19T16:23:26.062Z,11.75
2022-11-19T16:28:31.462Z,11.68
2022-11-19T16:33:35.663Z,13.63
2022-11-19T16:38:41.923Z,11.68
2022-11-19T16:43:48.700Z,16.52
2022-11-19T16:48:58.000Z,18.23
2022-11-19T16:54:01.895Z,13.70
2022-11-19T16:59:08.204Z,13.95
2022-11-19T17:04:15.300Z,16.20
2022-11-19T17:09:41.630Z,13.57
2022-11-19T17:14:52.514Z,12.30
2022-11-19T17:19:57.713Z,14.68
2022-11-19T17:25:04.441Z,12.85
2022-11-19T17:30:20.563Z,14.35
2022-11-19T17:35:34.940Z,17.98
2022-11-19T17:40:47.801Z,15.35
2022-11-19T17:45:52.694Z,16.15
2022-11-19T17:50:56.826Z,16.50
2022-11-19T17:56:02.927Z,14.68
2022-11-19T18:01:07.970Z,15.02
2022-11-19T18:06:12.948Z,14.50
2022-11-19T18:11:19.648Z,14.68
2022-11-19T18:16:27.355Z,15.02
2022-11-19T18:21:31.007Z,15.55
2022-11-19T18:26:34.562Z,14.45
2022-11-19T18:31:44.532Z,14.90
2022-11-19T18:36:48.113Z,11.32
2022-11-19T18:41:52.375Z,15.63
2022-11-19T18:46:57.373Z,15.50
2022-11-19T18:52:01.009Z,16.88
2022-11-19T18:57:05.050Z,21.65
2022-11-19T19:02:11.069Z,17.33
2022-11-19T19:07:14.779Z,18.95
2022-11-19T19:12:18.752Z,18.58
2022-11-19T19:17:23.684Z,19.83
2022-11-19T19:22:27.338Z,20.65
2022-11-19T19:27:30.784Z,20.50
2022-11-19T19:32:36.795Z,19.17
2022-11-19T19:37:42.607Z,18.27
2022-11-19T19:42:46.101Z,19.40
2022-11-19T19:47:51.208Z,18.83
2022-11-19T19:52:54.747Z,15.75
2022-11-19T19:57:58.379Z,19.55
2022-11-19T20:03:03.293Z,19.58
2022-11-19T20:08:07.409Z,17.58
2022-11-19T20:13:29.148Z,15.57
2022-11-19T20:18:34.316Z,15.20
2022-11-19T20:23:38.382Z,17.17
2022-11-19T20:28:42.450Z,18.23
2022-11-19T20:33:52.303Z,17.10
2022-11-19T20:38:57.553Z,16.13
2022-11-19T20:44:19.649Z,20.40
2022-11-19T20:49:25.992Z,17.05
2022-11-19T20:54:29.908Z,17.25
2022-11-19T20:59:33.495Z,16.42
2022-11-19T21:04:38.392Z,17.98
2022-11-19T21:09:42.741Z,16.00
2022-11-19T21:14:46.602Z,18.63
2022-11-19T21:19:52.065Z,17.13
2022-11-19T21:24:55.730Z,15.43
2022-11-19T21:29:59.222Z,16.35
2022-11-19T21:35:04.171Z,18.02
2022-11-19T21:40:08.904Z,18.65
2022-11-19T21:45:12.371Z,18.00
2022-11-19T21:50:18.318Z,19.50
2022-11-19T21:55:21.916Z,20.95
2022-11-19T22:00:25.927Z,20.90
2022-11-19T22:05:31.051Z,17.55
2022-11-19T22:10:34.536Z,19.25
2022-11-19T22:15:38.126Z,20.20
2022-11-19T22:20:43.563Z,19.35
2022-11-19T22:25:47.156Z,19.27
2022-11-19T22:30:53.673Z,19.80
2022-11-19T22:36:02.708Z,20.33
2022-11-19T22:41:11.135Z,18.65
2022-11-19T22:46:15.599Z,20.83
2022-11-19T22:51:22.253Z,20.75
2022-11-19T22:56:27.835Z,24.38
2022-11-19T23:01:33.034Z,20.55
2022-11-19T23:06:38.518Z,26.75
2022-11-19T23:11:59.411Z,22.98
2022-11-19T23:22:07.771Z,25.63
2022-11-19T23:27:11.275Z,24.13
2022-11-19T23:32:14.749Z,22.77
2022-11-19T23:37:19.749Z,27.15
2022-11-19T23:42:23.217Z,24.20
2022-11-19T23:47:26.654Z,24.02
2022-11-19T23:52:31.595Z,23.75
2022-11-19T23:57:35.247Z,25.02
